Time,TemperatureF,DewpointF,PressureIn,WindDirection,WindDirectionDegrees,WindSpeedMPH,WindSpeedGustMPH,Humidity,HourlyPrecipIn,Conditions,Clouds,dailyrainin,SoftwareType,DateUTC
2013-03-16 00:00:00,38.6,31.0,29.76,WSW,254,15.0,23.0,74,0.00,,,0.00,weatherlink.com 1.10,2013-03-16 04:00:00,
2013-03-16 00:15:00,38.7,30.0,29.77,WSW,258,21.0,26.0,72,0.00,,,0.00,weatherlink.com 1.10,2013-03-16 04:15:00,
2013-03-16 00:30:00,38.7,30.0,29.76,WSW,256,19.0,26.0,70,0.00,,,0.00,weatherlink.com 1.10,2013-03-16 04:30:00,
2013-03-16 00:45:00,38.5,29.0,29.77,West,271,16.0,25.0,70,0.00,,,0.00,weatherlink.com 1.10,2013-03-16 04:45:00,
2013-03-16 01:00:00,38.3,29.0,29.77,SW,236,15.0,23.0,70,0.00,,,0.00,weatherlink.com 1.10,2013-03-16 05:00:00,
2013-03-16 01:15:00,37.8,29.0,29.77,West,267,13.0,19.0,71,0.00,,,0.00,weatherlink.com 1.10,2013-03-16 05:15:00,
2013-03-16 01:30:00,37.7,29.0,29.78,West,275,14.0,22.0,70,0.00,,,0.00,weatherlink.com 1.10,2013-03-16 05:30:00,
2013-03-16 01:45:00,38.1,29.0,29.78,WNW,297,17.0,24.0,70,0.00,,,0.00,weatherlink.com 1.10,2013-03-16 05:45:00,
2013-03-16 02:00:00,37.4,29.0,29.79,West,263,9.0,20.0,71,0.00,,,0.00,weatherlink.com 1.10,2013-03-16 06:00:00,
2013-03-16 02:15:00,36.6,29.0,29.80,West,277,13.0,18.0,73,0.00,,,0.00,weatherlink.com 1.10,2013-03-16 06:15:00,
2013-03-16 02:30:00,36.7,29.0,29.80,West,277,14.0,19.0,73,0.00,,,0.00,weatherlink.com 1.10,2013-03-16 06:30:00,
2013-03-16 02:45:00,36.6,28.0,29.80,SSW,201,12.0,17.0,72,0.00,,,0.00,weatherlink.com 1.10,2013-03-16 06:45:00,
2013-03-16 03:00:00,36.3,27.0,29.80,WNW,300,9.0,18.0,70,0.00,,,0.00,weatherlink.com 1.10,2013-03-16 07:00:00,
2013-03-16 03:15:00,36.2,26.0,29.80,South,175,10.0,20.0,67,0.00,,,0.00,weatherlink.com 1.10,2013-03-16 07:15:00,
2013-03-16 03:30:00,36.1,25.0,29.80,NW,320,15.0,24.0,65,0.00,,,0.00,weatherlink.com 1.10,2013-03-16 07:30:00,
2013-03-16 03:46:00,35.9,23.0,29.81,WNW,290,12.0,23.0,61,0.00,,,0.00,weatherlink.com 1.10,2013-03-16 07:46:00,
2013-03-16 04:01:00,35.5,23.0,29.81,SW,225,6.0,23.0,61,0.00,,,0.00,weatherlink.com 1.10,2013-03-16 08:01:00,
2013-03-16 04:16:00,35.1,23.0,29.82,WSW,242,11.0,17.0,61,0.00,,,0.00,weatherlink.com 1.10,2013-03-16 08:16:00,
2013-03-16 05:31:00,33.8,23.0,29.85,WNW,298,8.0,13.0,64,0.00,,,0.00,weatherlink.com 1.10,2013-03-16 09:31:00,
2013-03-16 06:01:00,33.3,23.0,29.87,NNW,329,4.0,12.0,65,0.00,,,0.00,weatherlink.com 1.10,2013-03-16 10:01:00,
2013-03-16 06:31:00,32.3,23.0,29.87,NNE,14,5.0,10.0,68,0.00,,,0.00,weatherlink.com 1.10,2013-03-16 10:31:00,
2013-03-16 06:46:00,31.7,23.0,29.88,North,5,7.0,9.0,69,0.00,,,0.00,weatherlink.com 1.10,2013-03-16 10:46:00,
2013-03-16 07:01:00,31.3,23.0,29.89,North,5,5.0,12.0,70,0.00,,,0.00,weatherlink.com 1.10,2013-03-16 11:01:00,
2013-03-16 07:16:00,30.9,22.0,29.89,NNW,335,5.0,11.0,69,0.00,,,0.00,weatherlink.com 1.10,2013-03-16 11:16:00,
2013-03-16 07:31:00,31.1,22.0,29.89,North,5,6.0,11.0,70,0.00,,,0.00,weatherlink.com 1.10,2013-03-16 11:31:00,
2013-03-16 07:46:00,31.6,22.0,29.89,NNW,342,6.0,11.0,67,0.00,,,0.00,weatherlink.com 1.10,2013-03-16 11:46:00,
2013-03-16 08:01:00,32.2,23.0,29.89,WNW,286,5.0,11.0,68,0.00,,,0.00,weatherlink.com 1.10,2013-03-16 12:01:00,
2013-03-16 08:16:00,32.8,22.0,29.89,NNW,327,7.0,14.0,64,0.00,,,0.00,weatherlink.com 1.10,2013-03-16 12:16:00,
2013-03-16 08:31:00,34.1,20.0,29.89,NNW,327,8.0,18.0,57,0.00,,,0.00,weatherlink.com 1.10,2013-03-16 12:31:00,
2013-03-16 08:46:00,34.6,21.0,29.89,West,272,13.0,15.0,57,0.00,,,0.00,weatherlink.com 1.10,2013-03-16 12:46:00,
2013-03-16 09:16:00,35.3,19.0,29.90,NNW,327,6.0,17.0,52,0.00,,,0.00,weatherlink.com 1.10,2013-03-16 13:16:00,
2013-03-16 09:31:00,35.2,18.0,29.90,WSW,256,7.0,16.0,49,0.00,,,0.00,weatherlink.com 1.10,2013-03-16 13:31:00,
2013-03-16 09:46:00,35.3,17.0,29.90,WNW,294,5.0,16.0,48,0.00,,,0.00,weatherlink.com 1.10,2013-03-16 13:46:00,
2013-03-16 10:01:00,35.0,17.0,29.89,NNW,340,11.0,15.0,48,0.00,,,0.00,weatherlink.com 1.10,2013-03-16 14:01:00,
2013-03-16 10:16:00,35.2,18.0,29.89,WNW,300,6.0,15.0,49,0.00,,,0.00,weatherlink.com 1.10,2013-03-16 14:16:00,
2013-03-16 10:31:00,35.5,17.0,29.89,NNW,336,11.0,14.0,48,0.00,,,0.00,weatherlink.com 1.10,2013-03-16 14:31:00,
2013-03-16 10:47:00,36.2,18.0,29.88,NNW,340,8.0,14.0,48,0.00,,,0.00,weatherlink.com 1.10,2013-03-16 14:47:00,
2013-03-16 11:16:00,36.9,17.0,29.87,NNW,335,7.0,14.0,44,0.00,,,0.00,weatherlink.com 1.10,2013-03-16 15:16:00,
2013-03-16 11:31:00,36.8,17.0,29.88,NNW,332,8.0,12.0,44,0.00,,,0.00,weatherlink.com 1.10,2013-03-16 15:31:00,
2013-03-16 11:46:00,37.2,15.0,29.87,NW,316,7.0,9.0,41,0.00,,,0.00,weatherlink.com 1.10,2013-03-16 15:46:00,
2013-03-16 12:02:00,37.7,17.0,29.86,NW,323,5.0,8.0,44,0.00,,,0.00,weatherlink.com 1.10,2013-03-16 16:02:00,
2013-03-16 12:17:00,38.0,16.0,29.86,West,279,3.0,8.0,41,0.00,,,0.00,weatherlink.com 1.10,2013-03-16 16:17:00,
2013-03-16 12:32:00,37.2,15.0,29.87,West,269,5.0,6.0,40,0.00,,,0.00,weatherlink.com 1.10,2013-03-16 16:32:00,
2013-03-16 12:48:00,37.5,14.0,29.85,WSW,256,3.0,7.0,38,0.00,,,0.00,weatherlink.com 1.10,2013-03-16 16:48:00,
2013-03-16 13:02:00,37.2,12.0,29.86,WNW,288,2.0,7.0,36,0.00,,,0.00,weatherlink.com 1.10,2013-03-16 17:02:00,
2013-03-16 13:17:00,37.0,13.0,29.85,West,262,4.0,6.0,38,0.00,,,0.00,weatherlink.com 1.10,2013-03-16 17:17:00,
2013-03-16 13:32:00,37.4,14.0,29.85,West,267,4.0,7.0,38,0.00,,,0.00,weatherlink.com 1.10,2013-03-16 17:32:00,
2013-03-16 13:47:00,37.4,15.0,29.85,WSW,257,5.0,7.0,40,0.00,,,0.00,weatherlink.com 1.10,2013-03-16 17:47:00,
2013-03-16 14:02:00,38.0,16.0,29.85,West,270,6.0,8.0,41,0.00,,,0.00,weatherlink.com 1.10,2013-03-16 18:02:00,
2013-03-16 14:32:00,38.1,17.0,29.84,SW,234,5.0,12.0,43,0.00,,,0.00,weatherlink.com 1.10,2013-03-16 18:32:00,
2013-03-16 14:47:00,38.1,18.0,29.84,SSW,211,6.0,9.0,45,0.00,,,0.00,weatherlink.com 1.10,2013-03-16 18:47:00,
2013-03-16 15:02:00,38.2,20.0,29.84,SSW,211,6.0,11.0,48,0.00,,,0.00,weatherlink.com 1.10,2013-03-16 19:02:00,
2013-03-16 15:17:00,37.4,19.0,29.85,SW,223,10.0,15.0,48,0.00,,,0.00,weatherlink.com 1.10,2013-03-16 19:17:00,
2013-03-16 15:32:00,36.9,20.0,29.84,SW,229,10.0,15.0,50,0.00,,,0.00,weatherlink.com 1.10,2013-03-16 19:32:00,
2013-03-16 15:47:00,36.7,20.0,29.84,SW,236,13.0,15.0,52,0.00,,,0.00,weatherlink.com 1.10,2013-03-16 19:47:00,
2013-03-16 16:17:00,38.0,20.0,29.82,SW,232,13.0,18.0,48,0.00,,,0.00,weatherlink.com 1.10,2013-03-16 20:17:00,
2013-03-16 16:32:00,36.4,26.0,29.83,WSW,243,14.0,19.0,66,0.00,,,0.00,weatherlink.com 1.10,2013-03-16 20:32:00,
2013-03-16 16:47:00,35.2,26.0,29.83,SW,227,10.0,17.0,69,0.00,,,0.00,weatherlink.com 1.10,2013-03-16 20:47:00,
2013-03-16 17:02:00,34.8,26.0,29.82,WSW,252,7.0,15.0,71,0.00,,,0.00,weatherlink.com 1.10,2013-03-16 21:02:00,
2013-03-16 17:17:00,34.8,26.0,29.82,WSW,238,8.0,15.0,71,0.00,,,0.00,weatherlink.com 1.10,2013-03-16 21:17:00,
2013-03-16 17:32:00,34.6,27.0,29.82,West,265,10.0,15.0,73,0.00,,,0.00,weatherlink.com 1.10,2013-03-16 21:32:00,
2013-03-16 17:47:00,34.5,28.0,29.82,WSW,257,14.0,15.0,76,0.00,,,0.00,weatherlink.com 1.10,2013-03-16 21:47:00,
2013-03-16 18:02:00,34.1,27.0,29.83,WSW,257,13.0,16.0,75,0.00,,,0.00,weatherlink.com 1.10,2013-03-16 22:02:00,
2013-03-16 18:17:00,34.0,28.0,29.83,West,269,13.0,17.0,77,0.00,,,0.00,weatherlink.com 1.10,2013-03-16 22:17:00,
2013-03-16 18:32:00,33.7,28.0,29.83,West,266,16.0,17.0,78,0.00,,,0.00,weatherlink.com 1.10,2013-03-16 22:32:00,
2013-03-16 18:47:00,33.5,27.0,29.83,West,261,13.0,17.0,78,0.00,,,0.00,weatherlink.com 1.10,2013-03-16 22:47:00,
2013-03-16 19:02:00,33.6,27.0,29.84,West,279,12.0,19.0,78,0.00,,,0.00,weatherlink.com 1.10,2013-03-16 23:02:00,
2013-03-16 19:17:00,33.7,28.0,29.85,West,266,11.0,19.0,80,0.00,,,0.00,weatherlink.com 1.10,2013-03-16 23:17:00,
2013-03-16 19:32:00,33.6,28.0,29.85,WSW,246,13.0,18.0,81,0.00,,,0.00,weatherlink.com 1.10,2013-03-16 23:32:00,
2013-03-16 19:47:00,33.5,29.0,29.85,West,266,16.0,16.0,82,0.00,,,0.00,weatherlink.com 1.10,2013-03-16 23:47:00,
2013-03-16 20:02:00,33.5,28.0,29.85,West,263,11.0,15.0,81,0.00,,,0.00,weatherlink.com 1.10,2013-03-17 00:02:00,
2013-03-16 20:17:00,33.7,28.0,29.86,West,279,9.0,15.0,80,0.00,,,0.00,weatherlink.com 1.10,2013-03-17 00:17:00,
2013-03-16 20:32:00,33.7,28.0,29.86,WSW,257,8.0,9.0,78,0.00,,,0.00,weatherlink.com 1.10,2013-03-17 00:32:00,
2013-03-16 20:47:00,33.9,28.0,29.87,West,265,4.0,10.0,79,0.00,,,0.00,weatherlink.com 1.10,2013-03-17 00:47:00,
2013-03-16 21:02:00,33.8,28.0,29.88,NW,309,3.0,8.0,79,0.00,,,0.00,weatherlink.com 1.10,2013-03-17 01:02:00,
2013-03-16 21:17:00,33.7,28.0,29.88,West,270,4.0,8.0,80,0.00,,,0.00,weatherlink.com 1.10,2013-03-17 01:17:00,
2013-03-16 21:32:00,33.6,28.0,29.89,West,266,5.0,8.0,81,0.00,,,0.00,weatherlink.com 1.10,2013-03-17 01:32:00,
2013-03-16 21:48:00,33.5,29.0,29.89,West,279,5.0,6.0,83,0.00,,,0.00,weatherlink.com 1.10,2013-03-17 01:48:00,
2013-03-16 22:02:00,33.6,29.0,29.90,West,280,6.0,6.0,83,0.00,,,0.00,weatherlink.com 1.10,2013-03-17 02:02:00,
2013-03-16 22:17:00,33.8,29.0,29.90,West,263,6.0,9.0,83,0.00,,,0.00,weatherlink.com 1.10,2013-03-17 02:17:00,
2013-03-16 22:32:00,33.9,29.0,29.91,West,265,6.0,9.0,83,0.00,,,0.00,weatherlink.com 1.10,2013-03-17 02:32:00,
2013-03-16 22:47:00,33.7,29.0,29.91,WSW,257,7.0,9.0,82,0.00,,,0.00,weatherlink.com 1.10,2013-03-17 02:47:00,
2013-03-16 23:02:00,33.8,29.0,29.91,West,259,7.0,11.0,82,0.00,,,0.00,weatherlink.com 1.10,2013-03-17 03:02:00,
2013-03-16 23:17:00,34.0,29.0,29.91,SW,235,6.0,10.0,82,0.00,,,0.00,weatherlink.com 1.10,2013-03-17 03:17:00,
2013-03-16 23:32:00,34.1,29.0,29.92,West,277,7.0,11.0,81,0.00,,,0.00,weatherlink.com 1.10,2013-03-17 03:32:00,
2013-03-16 23:47:00,34.1,30.0,29.92,West,273,6.0,11.0,83,0.00,,,0.00,weatherlink.com 1.10,2013-03-17 03:47:00,